createdAt,value
2022-08-25T00:01:48.540Z,21.60
2022-08-25T00:04:16.928Z,21.60
2022-08-25T00:06:48.716Z,21.60
2022-08-25T00:09:18.642Z,21.60
2022-08-25T00:11:48.713Z,21.60
2022-08-25T00:14:23.223Z,21.60
2022-08-25T00:16:50.382Z,21.60
2022-08-25T00:19:22.477Z,21.50
2022-08-25T00:21:49.740Z,21.50
2022-08-25T00:24:19.782Z,21.50
2022-08-25T00:26:50.700Z,21.50
2022-08-25T00:29:18.306Z,21.50
2022-08-25T00:31:45.897Z,21.40
2022-08-25T00:34:20.937Z,21.40
2022-08-25T00:36:51.680Z,21.40
2022-08-25T00:39:21.092Z,21.30
2022-08-25T00:41:49.987Z,21.30
2022-08-25T00:44:19.741Z,21.20
2022-08-25T00:46:50.070Z,21.20
2022-08-25T00:49:35.279Z,21.10
2022-08-25T00:52:16.082Z,21.00
2022-08-25T00:54:54.755Z,20.90
2022-08-25T00:57:34.889Z,20.90
2022-08-25T01:00:14.784Z,20.90
2022-08-25T01:02:42.753Z,20.80
2022-08-25T01:05:09.965Z,20.80
2022-08-25T01:07:37.015Z,20.90
2022-08-25T01:10:07.865Z,20.90
2022-08-25T01:12:37.354Z,20.80
2022-08-25T01:15:06.884Z,20.80
2022-08-25T01:17:39.281Z,20.80
2022-08-25T01:20:06.643Z,20.80
2022-08-25T01:22:33.779Z,20.80
2022-08-25T01:25:04.948Z,20.70
2022-08-25T01:27:31.884Z,20.80
2022-08-25T01:29:58.897Z,20.70
2022-08-25T01:32:25.911Z,20.70
2022-08-25T01:34:52.903Z,20.70
2022-08-25T01:37:20.644Z,20.70
2022-08-25T01:39:48.077Z,20.60
2022-08-25T01:42:47.602Z,20.50
2022-08-25T01:45:15.438Z,20.50
2022-08-25T01:47:42.458Z,20.40
2022-08-25T01:50:10.076Z,20.30
2022-08-25T01:52:59.882Z,20.10
2022-08-25T01:55:27.320Z,20.00
2022-08-25T01:57:54.531Z,19.90
2022-08-25T02:00:22.553Z,19.90
2022-08-25T02:02:52.223Z,19.80
2022-08-25T02:05:23.486Z,19.70
2022-08-25T02:07:51.086Z,19.70
2022-08-25T02:10:20.087Z,19.60
2022-08-25T02:12:47.059Z,19.50
2022-08-25T02:15:14.573Z,19.50
2022-08-25T02:17:41.620Z,19.40
2022-08-25T02:20:09.670Z,19.40
2022-08-25T02:22:36.994Z,19.30
2022-08-25T02:25:04.131Z,19.30
2022-08-25T02:27:31.085Z,19.30
2022-08-25T02:29:58.046Z,19.20
2022-08-25T02:32:25.177Z,19.10
2022-08-25T02:34:52.165Z,19.10
2022-08-25T02:37:20.619Z,19.00
2022-08-25T02:39:47.550Z,19.00
2022-08-25T02:42:14.999Z,19.00
2022-08-25T02:44:42.003Z,19.10
2022-08-25T02:47:09.011Z,19.00
2022-08-25T02:49:36.066Z,19.00
2022-08-25T02:52:03.332Z,19.00
2022-08-25T02:54:30.669Z,19.00
2022-08-25T02:56:57.742Z,19.00
2022-08-25T02:59:24.703Z,19.00
2022-08-25T03:01:52.081Z,19.00
2022-08-25T03:04:19.327Z,19.00
2022-08-25T03:06:46.604Z,19.00
2022-08-25T03:09:13.918Z,19.00
2022-08-25T03:11:40.882Z,19.00
2022-08-25T03:14:09.683Z,19.00
2022-08-25T03:16:37.306Z,19.00
2022-08-25T03:19:04.482Z,18.90
2022-08-25T03:21:32.918Z,18.80
2022-08-25T03:24:00.024Z,18.80
2022-08-25T03:26:54.811Z,18.70
2022-08-25T03:29:41.371Z,18.60
2022-08-25T03:32:08.968Z,18.60
2022-08-25T03:34:36.045Z,18.50
2022-08-25T03:37:02.967Z,18.50
2022-08-25T03:39:29.981Z,18.40
2022-08-25T03:41:56.978Z,18.40
2022-08-25T03:44:24.040Z,18.40
2022-08-25T03:46:52.236Z,18.40
2022-08-25T03:49:23.742Z,18.40
2022-08-25T03:51:52.973Z,18.40
2022-08-25T03:54:23.367Z,18.30
2022-08-25T03:56:50.508Z,18.30
2022-08-25T03:59:18.984Z,18.20
2022-08-25T04:01:51.393Z,18.20
2022-08-25T04:04:21.199Z,18.20
2022-08-25T04:06:50.677Z,18.20
2022-08-25T04:09:17.632Z,18.10
2022-08-25T04:11:44.709Z,18.10
2022-08-25T04:14:13.060Z,18.00
2022-08-25T04:16:44.319Z,18.00
2022-08-25T04:19:11.528Z,18.00
2022-08-25T04:21:40.884Z,18.00
2022-08-25T04:24:10.185Z,17.90
2022-08-25T04:26:42.407Z,17.80
2022-08-25T04:29:11.529Z,17.80
2022-08-25T04:31:41.138Z,17.80
2022-08-25T04:34:29.840Z,17.70
2022-08-25T04:36:56.176Z,17.70
2022-08-25T04:39:23.499Z,17.60
2022-08-25T04:41:50.938Z,17.60
2022-08-25T04:44:18.014Z,17.60
2022-08-25T04:46:45.013Z,17.70
2022-08-25T04:49:15.429Z,17.70
2022-08-25T04:51:42.761Z,17.70
2022-08-25T04:54:11.650Z,17.60
2022-08-25T04:56:41.291Z,17.60
2022-08-25T04:59:16.092Z,17.60
2022-08-25T05:01:46.152Z,17.60
2022-08-25T05:04:28.087Z,17.60
2022-08-25T05:06:57.318Z,17.60
2022-08-25T05:09:25.063Z,17.60
2022-08-25T05:11:55.671Z,17.60
2022-08-25T05:14:25.744Z,17.50
2022-08-25T05:16:55.282Z,17.60
2022-08-25T05:19:23.923Z,17.50
2022-08-25T05:21:54.069Z,17.50
2022-08-25T05:24:22.278Z,17.60
2022-08-25T05:26:49.475Z,17.50
2022-08-25T05:29:16.894Z,17.50
2022-08-25T05:31:50.106Z,17.60
2022-08-25T05:34:19.007Z,17.60
2022-08-25T05:36:46.506Z,17.60
2022-08-25T05:39:13.636Z,17.60
2022-08-25T05:41:43.321Z,17.70
2022-08-25T05:44:10.497Z,17.70
2022-08-25T05:46:39.610Z,17.80
2022-08-25T05:49:06.976Z,17.90
2022-08-25T05:51:36.076Z,18.00
2022-08-25T05:54:03.934Z,18.10
2022-08-25T05:56:31.366Z,18.20
2022-08-25T05:58:58.591Z,18.40
2022-08-25T06:01:47.496Z,18.40
2022-08-25T06:04:16.731Z,18.50
2022-08-25T06:06:44.059Z,18.50
2022-08-25T06:09:11.046Z,18.60
2022-08-25T06:11:39.842Z,18.70
2022-08-25T06:14:08.829Z,18.80
2022-08-25T06:16:36.258Z,18.90
2022-08-25T06:19:04.700Z,19.10
2022-08-25T06:21:31.953Z,19.20
2022-08-25T06:23:58.949Z,19.30
2022-08-25T06:26:26.401Z,19.40
2022-08-25T06:28:53.904Z,19.40
2022-08-25T06:31:22.437Z,19.50
2022-08-25T06:33:50.631Z,19.50
2022-08-25T06:36:18.715Z,19.50
2022-08-25T06:38:46.440Z,19.70
2022-08-25T06:41:13.956Z,19.70
2022-08-25T06:43:48.044Z,19.80
2022-08-25T06:46:23.296Z,19.90
2022-08-25T06:49:03.826Z,20.00
2022-08-25T06:51:30.776Z,20.10
2022-08-25T06:53:57.737Z,20.20
2022-08-25T06:56:24.689Z,20.40
2022-08-25T06:58:53.750Z,20.50
2022-08-25T07:01:26.002Z,20.60
2022-08-25T07:03:59.168Z,20.70
2022-08-25T07:06:28.002Z,20.80
2022-08-25T07:08:54.987Z,20.90
2022-08-25T07:11:22.028Z,21.10
2022-08-25T07:13:50.481Z,21.10
2022-08-25T07:16:20.494Z,21.30
2022-08-25T07:18:48.941Z,21.40
2022-08-25T07:21:17.420Z,21.60
2022-08-25T07:23:46.986Z,21.80
2022-08-25T07:29:15.813Z,22.00
2022-08-25T07:31:43.306Z,22.00
2022-08-25T07:34:29.108Z,22.10
2022-08-25T07:36:57.758Z,22.20
2022-08-25T07:39:25.847Z,22.40
2022-08-25T07:41:53.886Z,22.50
2022-08-25T07:44:25.355Z,22.60
2022-08-25T07:46:55.970Z,22.60
2022-08-25T07:49:26.055Z,22.70
2022-08-25T07:52:03.583Z,22.80
2022-08-25T07:54:34.804Z,22.90
2022-08-25T07:57:06.894Z,23.00
2022-08-25T07:59:39.198Z,23.10
2022-08-25T08:02:18.440Z,23.20
2022-08-25T08:04:51.568Z,23.40
2022-08-25T08:07:22.947Z,23.50
2022-08-25T08:10:00.403Z,23.50
2022-08-25T08:12:39.542Z,23.50
2022-08-25T08:15:10.339Z,23.60
2022-08-25T08:17:39.632Z,23.70
2022-08-25T08:20:09.276Z,23.80
2022-08-25T08:22:41.593Z,23.90
2022-08-25T08:25:11.189Z,24.00
2022-08-25T08:27:46.243Z,24.00
2022-08-25T08:30:14.127Z,24.10
2022-08-25T08:33:08.186Z,24.30
2022-08-25T08:35:28.581Z,24.30
2022-08-25T08:37:55.527Z,24.50
2022-08-25T08:40:22.502Z,24.50
2022-08-25T08:43:18.159Z,24.70
2022-08-25T08:45:52.080Z,24.70
2022-08-25T08:48:57.858Z,24.70
2022-08-25T08:51:38.505Z,24.80
2022-08-25T08:54:18.468Z,24.90
2022-08-25T08:56:50.566Z,25.00
2022-08-25T08:59:22.201Z,25.00
2022-08-25T09:02:03.888Z,25.10
2022-08-25T09:05:04.003Z,25.20
2022-08-25T09:07:43.768Z,25.30
2022-08-25T09:10:17.348Z,25.50
2022-08-25T09:13:02.500Z,25.70
2022-08-25T09:16:05.961Z,25.70
2022-08-25T09:18:58.279Z,25.70
2022-08-25T09:21:37.512Z,25.80
2022-08-25T09:24:12.606Z,26.00
2022-08-25T09:26:59.579Z,26.10
2022-08-25T09:29:41.733Z,26.20
2022-08-25T09:32:09.341Z,26.40
2022-08-25T09:34:37.927Z,26.70
2022-08-25T09:37:05.140Z,26.80
2022-08-25T09:39:32.198Z,27.00
2022-08-25T09:42:00.455Z,27.30
2022-08-25T09:44:31.104Z,27.60
2022-08-25T09:47:08.110Z,27.90
2022-08-25T09:50:05.275Z,28.30
2022-08-25T09:52:41.411Z,28.70
2022-08-25T09:55:14.550Z,28.90
2022-08-25T09:57:47.415Z,28.90
2022-08-25T10:00:21.254Z,28.90
2022-08-25T10:03:09.640Z,28.80
2022-08-25T10:05:48.521Z,28.80
2022-08-25T10:08:31.439Z,28.70
2022-08-25T10:11:00.315Z,28.80
2022-08-25T10:13:38.935Z,28.90
2022-08-25T10:16:20.523Z,29.10
2022-08-25T10:19:15.044Z,29.40
2022-08-25T10:21:43.721Z,29.50
2022-08-25T10:24:13.167Z,29.70
2022-08-25T10:27:03.612Z,29.80
2022-08-25T10:29:36.489Z,29.90
2022-08-25T10:32:12.791Z,30.00
2022-08-25T10:34:59.155Z,30.10
2022-08-25T10:37:44.997Z,30.20
2022-08-25T10:40:24.226Z,30.20
2022-08-25T10:43:23.833Z,30.30
2022-08-25T10:46:12.528Z,30.40
2022-08-25T10:48:52.651Z,30.50
2022-08-25T10:51:41.201Z,30.70
2022-08-25T10:54:38.671Z,30.80
2022-08-25T10:57:35.292Z,31.10
2022-08-25T11:00:12.644Z,31.10
2022-08-25T11:03:01.419Z,31.10
2022-08-25T11:05:47.357Z,31.10
2022-08-25T11:08:17.288Z,31.20
2022-08-25T11:11:12.543Z,31.20
2022-08-25T11:13:50.645Z,31.10
2022-08-25T11:16:31.677Z,31.20
2022-08-25T11:19:35.366Z,31.30
2022-08-25T11:22:15.355Z,31.50
2022-08-25T11:24:52.834Z,31.60
2022-08-25T11:27:36.937Z,31.80
2022-08-25T11:30:09.769Z,31.90
2022-08-25T11:32:39.075Z,32.10
2022-08-25T11:35:12.304Z,32.10
2022-08-25T11:37:57.476Z,32.10
2022-08-25T11:40:36.717Z,32.00
2022-08-25T11:43:28.341Z,32.00
2022-08-25T11:46:06.600Z,31.90
2022-08-25T11:48:52.820Z,32.00
2022-08-25T11:51:45.359Z,32.10
2022-08-25T11:54:17.425Z,32.30
2022-08-25T11:57:04.545Z,32.30
2022-08-25T11:59:51.800Z,32.30
2022-08-25T12:02:35.742Z,32.40
2022-08-25T12:05:54.022Z,32.30
2022-08-25T12:08:52.033Z,32.30
2022-08-25T12:11:38.325Z,32.40
2022-08-25T12:14:17.483Z,32.40
2022-08-25T12:17:06.322Z,32.40
2022-08-25T12:19:38.075Z,32.50
2022-08-25T12:22:05.591Z,32.50
2022-08-25T12:24:47.732Z,32.60
2022-08-25T12:27:24.810Z,32.70
2022-08-25T12:30:00.208Z,32.80
2022-08-25T12:32:46.508Z,33.10
2022-08-25T12:35:38.247Z,33.00
2022-08-25T12:38:19.053Z,32.70
2022-08-25T12:40:46.044Z,32.40
2022-08-25T12:43:26.280Z,32.30
2022-08-25T12:46:34.226Z,32.30
2022-08-25T12:49:30.727Z,32.30
2022-08-25T12:52:22.409Z,32.30
2022-08-25T12:54:59.456Z,32.40
2022-08-25T12:57:44.625Z,32.60
2022-08-25T13:00:23.587Z,32.60
2022-08-25T13:03:01.704Z,32.50
2022-08-25T13:05:49.707Z,32.40
2022-08-25T13:08:33.740Z,32.10
2022-08-25T13:11:28.428Z,32.20
2022-08-25T13:14:04.949Z,32.50
2022-08-25T13:16:33.804Z,32.90
2022-08-25T13:19:06.781Z,33.10
2022-08-25T13:21:39.445Z,33.20
2022-08-25T13:24:19.895Z,33.30
2022-08-25T13:26:51.540Z,33.40
2022-08-25T13:29:53.465Z,33.60
2022-08-25T14:47:06.920Z,36.70
2022-08-25T14:49:40.592Z,36.90
2022-08-25T14:52:22.728Z,36.60
2022-08-25T14:54:49.969Z,36.60
2022-08-25T14:57:17.123Z,36.40
2022-08-25T14:59:44.331Z,36.40
2022-08-25T15:02:19.889Z,36.40
2022-08-25T15:04:55.341Z,36.30
2022-08-25T15:07:40.952Z,36.20
2022-08-25T15:10:09.057Z,35.90
2022-08-25T15:12:47.440Z,36.00
2022-08-25T15:15:15.399Z,36.00
2022-08-25T15:17:45.077Z,36.10
2022-08-25T15:20:13.036Z,36.10
2022-08-25T15:22:42.402Z,36.10
2022-08-25T15:25:11.422Z,36.00
2022-08-25T15:27:38.544Z,36.00
2022-08-25T15:30:06.735Z,36.20
2022-08-25T15:32:33.971Z,36.30
2022-08-25T15:35:01.048Z,36.20
2022-08-25T15:37:29.133Z,36.30
2022-08-25T15:39:56.922Z,36.30
2022-08-25T15:42:25.373Z,36.10
2022-08-25T15:44:53.249Z,36.20
2022-08-25T15:47:22.443Z,36.30
2022-08-25T15:49:49.970Z,36.40
2022-08-25T15:52:17.285Z,36.30
2022-08-25T15:54:45.206Z,36.30
2022-08-25T15:57:16.670Z,36.20
2022-08-25T15:59:52.508Z,36.20
2022-08-25T16:02:21.885Z,36.00
2022-08-25T16:04:50.758Z,35.60
2022-08-25T16:07:17.935Z,35.50
2022-08-25T16:09:44.991Z,35.40
2022-08-25T16:12:12.160Z,35.50
2022-08-25T16:14:40.439Z,35.60
2022-08-25T16:17:07.731Z,35.60
2022-08-25T16:19:38.056Z,35.30
2022-08-25T16:22:08.834Z,35.20
2022-08-25T16:24:45.021Z,35.10
2022-08-25T16:27:13.324Z,35.30
2022-08-25T16:29:42.604Z,35.30
2022-08-25T16:32:13.445Z,35.00
2022-08-25T16:34:40.981Z,34.80
2022-08-25T16:37:08.637Z,34.60
2022-08-25T16:39:40.005Z,34.40
2022-08-25T16:42:08.348Z,34.30
2022-08-25T16:44:35.429Z,34.10
2022-08-25T16:47:02.920Z,34.10
2022-08-25T16:49:31.029Z,34.10
2022-08-25T16:51:58.097Z,34.10
2022-08-25T16:54:46.906Z,34.10
2022-08-25T16:57:15.236Z,34.00
2022-08-25T16:59:43.745Z,33.80
2022-08-25T17:02:11.037Z,33.70
2022-08-25T17:04:38.251Z,33.60
2022-08-25T17:07:07.853Z,33.40
2022-08-25T17:09:36.419Z,33.40
2022-08-25T17:12:05.075Z,33.20
2022-08-25T17:14:32.704Z,33.10
2022-08-25T17:17:00.045Z,32.90
2022-08-25T17:19:28.209Z,32.70
2022-08-25T17:21:55.302Z,32.60
2022-08-25T17:24:29.229Z,32.40
2022-08-25T17:26:59.315Z,32.30
2022-08-25T17:29:26.577Z,32.20
2022-08-25T17:31:53.606Z,32.00
2022-08-25T17:34:23.301Z,31.90
2022-08-25T17:36:51.587Z,31.70
2022-08-25T17:39:19.856Z,31.60
2022-08-25T17:41:50.897Z,31.50
2022-08-25T17:44:18.867Z,31.40
2022-08-25T17:46:48.014Z,31.20
2022-08-25T17:49:17.665Z,31.10
2022-08-25T17:51:45.357Z,31.00
2022-08-25T17:54:12.841Z,30.90
2022-08-25T17:56:40.211Z,30.90
2022-08-25T17:59:07.977Z,30.80
2022-08-25T18:01:40.205Z,30.70
2022-08-25T18:04:15.622Z,30.50
2022-08-25T18:06:46.653Z,30.30
2022-08-25T18:09:14.558Z,30.20
2022-08-25T18:11:42.412Z,30.10
2022-08-25T18:14:11.429Z,29.90
2022-08-25T18:16:38.886Z,29.80
2022-08-25T18:19:09.410Z,29.70
2022-08-25T18:21:37.129Z,29.60
2022-08-25T18:24:05.136Z,29.50
2022-08-25T18:26:32.457Z,29.40
2022-08-25T18:28:59.931Z,29.30
2022-08-25T18:31:27.760Z,29.20
2022-08-25T18:33:55.256Z,29.00
2022-08-25T18:36:22.468Z,28.90
2022-08-25T18:39:09.005Z,28.80
2022-08-25T18:41:42.727Z,28.60
2022-08-25T18:44:12.268Z,28.40
2022-08-25T18:46:42.741Z,28.30
2022-08-25T18:49:09.890Z,28.10
2022-08-25T18:51:37.414Z,28.00
2022-08-25T18:54:05.120Z,27.80
2022-08-25T18:56:33.367Z,27.60
2022-08-25T18:59:00.557Z,27.50
2022-08-25T19:01:28.625Z,27.40
2022-08-25T19:03:56.491Z,27.30
2022-08-25T19:06:24.039Z,27.20
2022-08-25T19:08:51.115Z,27.00
2022-08-25T19:11:22.429Z,26.80
2022-08-25T19:13:50.453Z,26.70
2022-08-25T19:16:40.086Z,26.50
2022-08-25T19:19:11.556Z,26.40
2022-08-25T19:21:39.432Z,26.20
2022-08-25T19:24:08.125Z,26.00
2022-08-25T19:26:36.949Z,25.90
2022-08-25T19:29:07.536Z,25.80
2022-08-25T19:31:37.536Z,25.60
2022-08-25T19:34:09.346Z,25.50
2022-08-25T19:36:39.731Z,25.40
2022-08-25T19:39:08.829Z,25.30
2022-08-25T19:41:36.223Z,25.20
2022-08-25T19:44:04.022Z,25.20
2022-08-25T19:46:36.572Z,25.10
2022-08-25T19:49:11.692Z,25.00
2022-08-25T19:51:44.312Z,24.90
2022-08-25T19:54:13.923Z,24.90
2022-08-25T19:56:43.967Z,24.70
2022-08-25T19:59:40.509Z,24.60
2022-08-25T20:02:28.320Z,24.60
2022-08-25T20:05:01.545Z,24.50
2022-08-25T20:07:30.425Z,24.50
2022-08-25T20:09:58.854Z,24.40
2022-08-25T20:12:27.125Z,24.30
2022-08-25T20:14:55.100Z,24.20
2022-08-25T20:17:26.116Z,24.10
2022-08-25T20:19:59.036Z,24.10
2022-08-25T20:22:28.341Z,24.10
2022-08-25T20:24:58.497Z,24.00
2022-08-25T20:27:31.948Z,23.90
2022-08-25T20:29:59.784Z,23.80
2022-08-25T20:32:31.873Z,23.80
2022-08-25T20:34:59.032Z,23.70
2022-08-25T20:37:26.429Z,23.60
2022-08-25T20:39:53.563Z,23.60
2022-08-25T20:42:20.882Z,23.60
2022-08-25T20:44:47.857Z,23.60
2022-08-25T20:47:15.460Z,23.50
2022-08-25T20:49:45.272Z,23.50
2022-08-25T20:52:14.104Z,23.50
2022-08-25T20:54:47.062Z,23.40
2022-08-25T20:57:25.533Z,23.40
2022-08-25T20:59:54.832Z,23.40
2022-08-25T21:02:24.239Z,23.40
2022-08-25T21:04:52.217Z,23.40
2022-08-25T21:07:20.797Z,23.40
2022-08-25T21:09:51.363Z,23.40
2022-08-25T21:12:18.986Z,23.40
2022-08-25T21:14:46.246Z,23.30
2022-08-25T21:17:15.062Z,23.30
2022-08-25T21:19:42.710Z,23.30
2022-08-25T21:22:11.215Z,23.30
2022-08-25T21:24:39.053Z,23.30
2022-08-25T21:27:06.663Z,23.30
2022-08-25T21:29:34.027Z,23.30
2022-08-25T21:32:01.182Z,23.30
2022-08-25T21:34:29.377Z,23.30
2022-08-25T21:37:00.205Z,23.30
2022-08-25T21:39:28.671Z,23.30
2022-08-25T21:41:58.461Z,23.30
2022-08-25T21:44:27.155Z,23.20
2022-08-25T21:46:54.809Z,23.20
2022-08-25T21:49:23.383Z,23.10
2022-08-25T21:52:01.019Z,23.20
2022-08-25T21:54:30.060Z,23.20
2022-08-25T21:57:02.548Z,23.10
2022-08-25T21:59:33.118Z,23.10
2022-08-25T22:02:10.186Z,23.10
2022-08-25T22:04:39.322Z,23.10
2022-08-25T22:07:07.885Z,23.10
2022-08-25T22:09:35.654Z,23.10
2022-08-25T22:12:03.834Z,23.00
2022-08-25T22:14:32.321Z,23.00
2022-08-25T22:17:00.004Z,23.00
2022-08-25T22:19:27.627Z,22.90
2022-08-25T22:21:55.415Z,22.90
2022-08-25T22:24:23.193Z,22.80
2022-08-25T22:26:55.774Z,22.90
2022-08-25T22:29:25.218Z,22.80
2022-08-25T22:31:58.610Z,22.80
2022-08-25T22:34:30.550Z,22.80
2022-08-25T22:37:00.407Z,22.80
2022-08-25T22:39:27.650Z,22.80
2022-08-25T22:41:54.719Z,22.80
2022-08-25T22:44:23.344Z,22.80
2022-08-25T22:46:50.328Z,22.70
2022-08-25T22:49:18.112Z,22.60
2022-08-25T22:51:46.988Z,22.60
2022-08-25T22:54:15.199Z,22.50
2022-08-25T22:56:42.834Z,22.30
2022-08-25T22:59:12.510Z,22.20
2022-08-25T23:01:40.213Z,22.10
2022-08-25T23:04:07.417Z,22.10
2022-08-25T23:06:34.767Z,21.90
2022-08-25T23:09:05.147Z,21.90
2022-08-25T23:11:32.143Z,21.90
2022-08-25T23:14:05.561Z,21.80
2022-08-25T23:16:33.190Z,21.80
2022-08-25T23:19:00.671Z,21.70
2022-08-25T23:21:46.633Z,21.70
2022-08-25T23:24:14.959Z,21.60
2022-08-25T23:26:59.325Z,21.60
2022-08-25T23:29:27.529Z,21.60
2022-08-25T23:31:54.996Z,21.50
2022-08-25T23:34:22.566Z,21.50
2022-08-25T23:36:49.675Z,21.40
2022-08-25T23:39:16.686Z,21.40
2022-08-25T23:41:43.747Z,21.30
2022-08-25T23:44:11.559Z,21.30
2022-08-25T23:46:44.419Z,21.30
2022-08-25T23:49:12.365Z,21.20
2022-08-25T23:51:41.076Z,21.20
2022-08-25T23:54:10.786Z,21.20
2022-08-25T23:56:44.730Z,21.20
2022-08-25T23:59:18.906Z,21.10
